Date,TemperatureHighF,TemperatureAvgF,TemperatureLowF,DewpointHighF,DewpointAvgF,DewpointLowF,HumidityHigh,HumidityAvg,HumidityLow,PressureMaxIn,PressureMinIn,WindSpeedMaxMPH,WindSpeedAvgMPH,GustSpeedMaxMPH,PrecipitationSumIn
2013-1-1,48,43,35,47,42,34,95,94,82,30.13,30.00,8,2,16,1.14
2013-1-2,35,31,29,34,29,26,95,93,89,30.27,30.11,3,1,9,0.03
2013-1-3,42,33,27,29,25,20,92,74,53,30.43,30.23,5,1,13,0.00
2013-1-4,44,35,27,28,24,21,80,65,49,30.50,30.40,4,0,11,0.00
2013-1-5,46,37,27,36,28,22,92,72,53,30.43,30.29,4,1,10,0.02
2013-1-6,49,40,32,39,34,27,94,82,58,30.37,30.20,5,1,12,0.02
2013-1-7,50,37,25,34,28,22,88,72,50,30.44,30.29,4,1,12,0.01
2013-1-8,58,47,38,43,37,30,78,69,55,30.36,30.24,8,2,15,0.00
2013-1-9,55,52,49,54,50,43,96,92,78,30.40,30.27,4,0,8,0.18
2013-1-10,64,59,54,61,57,53,96,93,87,30.35,30.02,18,5,28,0.11
2013-1-11,67,64,61,63,61,59,96,91,81,30.08,29.99,15,6,24,0.06
2013-1-12,67,65,63,65,63,59,96,92,82,30.05,29.89,15,5,23,0.01
2013-1-13,68,58,36,64,55,34,96,91,81,30.16,29.84,14,5,25,0.01
2013-1-14,36,32,29,34,30,27,100,92,90,30.33,30.16,6,1,12,0.00
2013-1-15,34,32,31,33,31,29,100,95,94,30.23,29.99,5,0,13,0.01
2013-1-16,35,34,32,34,33,31,95,95,95,30.14,30.00,3,1,6,0.01
2013-1-17,40,36,32,34,31,27,95,84,76,30.43,30.01,9,2,20,0.00
2013-1-18,49,38,28,35,28,25,90,71,42,30.60,30.42,5,1,14,1.52
2013-1-19,53,43,34,35,31,27,78,62,46,30.42,30.22,11,2,20,0.37
2013-1-20,57,46,37,38,33,27,84,63,44,30.27,30.15,4,0,9,0.01
2013-1-21,43,35,28,27,20,15,69,54,41,30.31,30.15,6,1,13,0.17
2013-1-22,35,29,21,17,14,9,70,56,42,30.44,30.29,3,0,6,0.14
2013-1-23,54,40,28,37,27,17,73,59,48,30.41,30.20,7,1,13,0.21
2013-1-24,45,36,31,37,23,14,80,58,41,30.43,30.22,4,0,12,0.09
2013-1-25,43,39,32,41,32,16,94,78,52,30.29,30.11,4,0,17,0.16
2013-1-26,49,38,30,37,32,28,94,79,56,30.35,30.24,3,0,8,0.19
2013-1-27,50,42,35,42,36,29,91,79,68,30.38,30.27,4,0,14,0.02
2013-1-28,62,53,46,54,46,37,89,77,70,30.31,30.17,12,2,16,0.01
2013-1-29,67,60,53,63,57,50,95,91,85,30.18,29.68,17,4,29,0.00
2013-1-30,69,52,35,63,48,25,95,85,66,29.93,29.52,22,5,37,0.27
2013-1-31,46,40,29,32,28,24,81,61,47,30.20,29.93,6,1,16,1.03
2013-2-1,41,27,20,33,15,12,82,60,47,30.49,30.20,8,1,21,0.01
2013-2-2,42,33,25,33,25,14,92,74,61,30.38,30.14,7,1,13,0.02
2013-2-3,52,40,31,35,30,26,93,70,42,30.19,30.09,5,1,16,0.01
2013-2-4,50,40,30,35,30,25,85,69,50,30.16,29.97,3,0,10,0.01
2013-2-5,62,51,41,47,41,34,92,71,50,30.06,29.95,6,0,11,0.06
2013-2-6,62,51,40,41,37,35,82,61,41,30.21,30.06,2,0,9,0.00
2013-2-7,57,52,48,48,43,35,92,73,58,30.10,29.93,5,0,18,0.00
2013-2-8,48,43,34,45,38,28,95,84,72,30.29,29.90,7,1,20,0.10
2013-2-9,56,43,30,36,31,26,86,65,42,30.36,30.16,5,1,18,0.01
2013-2-10,56,51,47,54,43,34,94,75,53,30.18,29.90,15,2,27,0.77
2013-2-11,57,51,43,56,42,30,95,73,52,30.17,29.97,4,0,16,0.01
2013-2-12,50,45,40,39,34,31,82,66,50,30.18,29.80,4,0,13,0.03
2013-2-13,43,41,39,41,37,34,94,88,81,30.05,29.71,5,0,13,0.09
2013-2-14,58,45,33,41,35,31,93,71,45,30.11,30.03,7,1,16,0.01
2013-2-15,52,44,35,40,34,25,87,69,56,30.15,30.06,5,0,12,0.00
2013-2-16,37,32,26,25,18,12,73,56,42,30.25,30.13,7,1,15,0.00
2013-2-17,46,34,21,23,18,12,74,52,37,30.34,30.23,5,0,13,0.00
2013-2-18,58,48,36,42,32,20,87,55,45,30.26,29.91,10,1,27,0.27
2013-2-19,48,43,34,43,30,20,94,64,33,30.25,29.92,4,0,12,0.43
2013-2-20,35,32,26,22,19,16,69,59,49,30.33,30.22,4,1,12,0.01
2013-2-21,52,39,29,45,28,18,93,67,39,30.24,29.89,4,0,21,0.82
2013-2-22,54,49,46,49,46,44,95,89,78,30.08,29.92,11,1,18,0.63
2013-2-23,56,46,38,44,38,29,93,77,61,30.02,29.89,4,0,10,0.01
2013-2-24,56,44,32,35,29,26,80,58,39,30.11,29.98,4,0,10,0.01
2013-2-25,58,48,38,45,35,25,86,60,43,29.99,29.53,7,1,19,0.01
2013-2-26,48,43,38,45,39,34,94,85,68,29.78,29.42,18,1,22,0.30
2013-2-27,49,41,37,37,33,30,86,75,60,29.95,29.78,5,0,16,0.01
2013-2-28,38,35,33,33,28,26,84,73,66,30.09,29.90,3,0,11,0.01
2013-3-1,37,34,31,30,29,27,92,81,69,30.10,30.04,2,0,10,0.00
2013-3-2,33,31,28,29,27,24,92,88,82,30.18,30.06,5,2,14,0.06
2013-3-3,42,33,24,24,20,16,85,62,40,30.21,30.12,8,1,13,0.01
2013-3-4,57,44,30,39,27,16,70,53,40,30.17,29.89,14,3,23,0.00
2013-3-5,56,47,33,54,42,20,94,82,58,30.06,29.70,14,3,21,0.68
2013-3-6,42,35,29,30,25,19,80,68,59,30.31,30.05,7,1,27,0.11
2013-3-7,46,35,27,33,28,23,86,76,60,30.39,30.29,4,0,11,0.01
2013-3-8,59,43,27,33,27,24,88,59,31,30.41,30.25,3,0,9,0.00
2013-3-9,64,52,41,39,33,25,59,48,38,30.25,30.07,10,3,18,0.00
2013-3-10,70,61,52,52,42,35,81,51,43,30.08,29.82,18,7,31,0.12
2013-3-11,59,47,38,52,43,30,94,86,74,29.99,29.79,12,3,28,1.92
2013-3-12,54,42,32,35,30,26,87,65,44,30.19,29.99,5,1,13,0.01
2013-3-13,47,41,34,29,25,20,72,54,39,30.40,30.16,6,1,17,0.00
2013-3-14,53,39,25,28,23,18,75,54,34,30.46,30.25,4,0,10,0.00
2013-3-15,74,57,41,51,38,25,61,50,41,30.25,29.92,11,2,18,0.00
2013-3-16,74,64,55,53,48,44,69,56,46,29.93,29.83,11,2,20,0.00
2013-3-17,69,62,54,55,50,46,81,66,46,29.93,29.80,11,3,23,0.00
2013-3-18,62,58,47,60,54,42,95,88,73,29.96,29.70,13,5,24,0.31
2013-3-19,58,47,36,43,34,19,95,65,31,30.17,29.96,6,1,12,0.14
2013-3-20,54,45,36,31,24,19,73,45,32,30.18,30.00,11,1,17,0.02
2013-3-21,44,35,24,27,18,14,73,52,34,30.11,29.96,5,0,13,0.01
2013-3-22,46,41,35,38,30,20,80,64,48,30.04,29.96,7,1,13,0.01
2013-3-23,50,46,42,48,44,38,94,91,78,29.98,29.70,4,0,11,0.15
2013-3-24,58,49,36,53,44,26,96,84,65,29.79,29.46,10,2,20,0.26
2013-3-25,36,33,31,27,24,23,81,69,62,30.18,29.79,14,1,20,0.05
2013-3-26,38,34,29,29,26,25,84,74,61,30.38,30.16,6,1,13,0.63
2013-3-27,53,42,30,31,27,23,77,57,38,30.43,30.30,4,0,12,0.01
2013-3-28,61,48,35,38,31,24,74,52,37,30.39,30.27,4,0,9,0.00
2013-3-29,60,51,43,43,37,32,68,59,51,30.31,30.17,3,0,9,0.00
2013-3-30,63,52,44,53,46,-100,95,84,61,30.19,29.96,8,0,15,0.18
2013-3-31,61,55,50,59,53,49,96,95,90,29.96,29.86,5,0,13,0.33
2013-4-1,66,53,43,54,45,37,96,77,44,30.12,29.91,5,0,11,0.22
2013-4-2,50,44,39,38,29,26,70,55,44,30.26,30.11,2,0,13,0.03
2013-4-3,53,47,39,31,27,23,65,47,37,30.24,30.12,3,0,12,0.01
2013-4-4,48,44,41,42,40,30,94,88,49,30.14,29.98,3,0,10,0.00
2013-4-5,64,52,43,46,40,36,95,68,35,30.13,30.01,5,0,11,0.01
2013-4-6,70,59,44,46,40,36,78,52,36,30.16,30.00,12,2,19,0.01
2013-4-7,70,62,51,54,47,41,73,59,50,30.11,29.97,13,3,22,0.01
2013-4-8,76,66,55,59,54,48,82,67,53,30.06,29.94,16,4,27,0.01
2013-4-9,79,70,61,64,59,55,81,70,54,30.12,29.98,14,3,22,0.00
2013-4-10,82,73,63,61,58,56,80,61,45,30.03,29.79,11,6,22,0.00
2013-4-11,72,65,51,64,59,50,95,82,61,29.80,29.55,13,5,25,0.56
2013-4-12,64,52,40,50,42,38,95,72,46,29.98,29.69,4,0,14,0.57
2013-4-13,70,57,43,47,42,38,84,59,41,30.11,29.98,2,0,8,0.01
2013-4-14,64,58,53,52,46,41,84,66,47,30.01,29.84,14,2,28,0.00
2013-4-15,77,65,55,62,57,52,92,77,58,30.03,29.88,8,3,20,0.00
2013-4-16,78,70,63,68,64,58,87,80,71,30.14,30.02,11,4,19,0.00
2013-4-17,83,75,67,69,66,63,87,74,55,30.14,29.96,9,3,19,0.00
2013-4-18,79,72,65,64,62,60,91,73,55,29.95,29.61,17,7,28,0.00
2013-4-19,72,48,39,65,41,32,94,78,57,30.15,29.62,10,1,24,0.13
2013-4-20,62,49,35,40,35,32,91,62,39,30.29,30.15,4,0,10,0.08
2013-4-21,67,55,43,44,38,32,68,53,37,30.35,30.22,3,0,13,0.03
2013-4-22,70,60,50,51,45,40,71,59,43,30.27,30.10,6,1,15,0.02
2013-4-23,71,63,54,55,51,44,77,65,56,30.15,29.99,9,2,23,0.01
2013-4-24,65,55,45,57,50,39,94,82,70,30.27,29.93,12,2,21,0.01
2013-4-25,63,52,39,41,37,35,84,60,37,30.39,30.24,4,0,13,0.07
2013-4-26,68,55,44,48,42,36,91,65,42,30.40,30.24,5,0,14,0.14
2013-4-27,64,56,51,61,54,48,95,92,84,30.27,29.95,7,1,17,0.20
2013-4-28,65,61,58,62,59,54,96,92,80,29.98,29.91,13,2,31,0.31
2013-4-29,71,62,56,60,56,52,96,81,59,30.03,29.91,3,0,12,0.07
2013-4-30,76,66,53,60,55,50,93,69,48,30.02,29.93,6,0,14,0.01
2013-5-1,73,67,62,62,58,54,87,73,61,30.11,30.00,9,1,18,0.00
2013-5-2,69,64,59,61,56,52,83,75,71,30.14,30.04,9,1,17,0.00
2013-5-3,71,62,45,59,55,43,93,77,61,30.04,29.83,12,3,29,0.01
2013-5-4,50,44,39,46,42,37,95,92,83,29.98,29.87,3,0,7,0.04
2013-5-5,55,48,42,48,45,40,95,90,74,29.92,29.82,2,0,11,0.05
2013-5-6,59,51,48,55,49,47,100,94,77,29.93,29.78,1,0,6,0.03
2013-5-7,68,56,45,57,51,44,96,85,62,30.01,29.91,4,0,10,0.01
2013-5-8,76,64,52,62,56,50,95,76,55,30.06,29.98,0,0,3,0.00
2013-5-9,79,68,57,64,59,54,91,73,54,30.10,29.98,11,2,18,0.06
2013-5-10,70,64,60,64,58,-100,95,86,75,30.02,29.89,11,2,21,0.05
2013-5-11,70,63,55,65,58,-100,96,87,65,30.01,29.91,4,0,11,0.02
2013-5-12,63,56,48,52,41,35,89,58,38,30.17,30.01,2,0,11,0.05
2013-5-13,69,57,42,47,41,35,82,56,38,30.28,30.14,3,0,13,0.03
2013-5-14,80,67,52,60,54,44,81,64,47,30.19,30.04,9,2,20,0.02
2013-5-15,81,71,60,61,56,53,78,62,44,30.13,29.98,10,1,14,0.01
2013-5-16,79,66,63,67,38,-100,82,66,46,30.03,29.94,7,1,17,0.01
2013-5-17,68,64,63,66,58,-100,95,90,69,30.03,29.94,5,1,14,0.00
2013-5-18,79,71,65,71,67,64,97,89,72,30.01,29.95,5,1,12,0.00
2013-5-19,81,74,68,73,69,63,96,86,74,30.01,29.93,8,2,18,0.00
2013-5-20,82,72,64,72,66,60,92,82,68,30.03,29.92,7,1,11,0.00
2013-5-21,83,75,68,73,68,63,92,79,64,29.97,29.80,6,1,17,0.00
2013-5-22,78,70,63,69,64,60,93,83,70,29.91,29.82,9,2,16,0.00
2013-5-23,77,69,61,66,60,55,95,75,54,30.06,29.89,0,0,4,0.00
2013-5-24,71,62,55,56,51,47,88,69,48,30.27,30.06,2,0,13,0.00
2013-5-25,77,64,51,54,49,42,82,60,37,30.32,30.17,4,0,7,0.00
2013-5-26,82,69,53,62,54,48,87,61,40,30.22,30.11,4,0,15,0.00
2013-5-27,82,73,61,66,60,54,79,65,51,30.15,30.02,10,2,22,0.00
2013-5-28,83,75,66,64,62,59,80,65,50,30.10,30.01,12,2,20,0.00
2013-5-29,84,76,68,69,64,59,77,67,56,30.11,30.01,7,1,15,0.00
2013-5-30,81,76,70,72,67,63,82,74,64,30.11,29.99,11,2,23,0.01
2013-5-31,82,76,71,71,68,65,84,75,68,30.06,29.95,12,3,20,0.01
2013-6-1,80,73,67,73,68,65,95,84,74,30.01,29.84,13,3,21,0.02
2013-6-2,77,71,66,70,67,65,96,89,77,29.93,29.85,2,0,6,0.18
2013-6-3,79,70,62,66,62,58,92,77,57,29.98,29.89,2,0,11,0.09
2013-6-4,82,71,60,66,61,56,88,71,51,30.02,29.92,3,0,7,0.01
2013-6-5,73,68,66,69,64,60,95,88,78,29.97,29.85,5,0,10,0.01
2013-6-6,79,70,64,71,67,63,96,89,75,29.85,29.72,6,0,12,0.13
2013-6-7,76,69,63,69,65,61,94,90,75,29.86,29.70,0,0,1,0.15
2013-6-8,80,71,60,67,62,59,96,76,54,30.01,29.85,4,0,9,0.11
2013-6-9,80,70,67,72,66,60,95,88,74,30.02,29.86,4,1,13,0.09
2013-6-10,82,74,66,71,67,64,96,81,59,29.95,29.86,11,2,24,0.12
2013-6-11,89,79,69,77,72,67,93,81,62,30.01,29.92,5,0,13,0.18
2013-6-12,90,81,73,79,74,71,94,79,60,30.04,29.91,5,1,13,0.53
2013-6-13,88,78,70,78,72,65,94,80,68,29.93,29.77,4,0,14,0.01
2013-6-14,81,72,63,65,60,57,87,69,50,30.01,29.89,3,0,10,0.00
2013-6-15,84,74,62,68,63,57,88,69,52,30.07,29.98,5,0,12,0.00
2013-6-16,86,77,70,75,69,63,90,77,63,30.06,29.95,5,0,14,0.01
2013-6-17,87,74,68,76,69,66,95,87,62,29.98,29.86,18,1,27,0.12
2013-6-18,75,71,67,72,68,64,96,89,75,29.94,29.82,9,1,16,0.30
2013-6-19,86,75,65,72,67,63,94,78,54,30.03,29.92,3,0,8,0.02
2013-6-20,87,75,67,71,68,65,94,80,55,30.14,30.03,5,0,11,0.01
2013-6-22,85,81,75,70,67,65,77,62,51,30.18,30.03,6,1,12,0.00
2013-6-23,86,77,67,72,67,63,89,72,53,30.13,30.03,3,0,9,0.00
2013-6-24,86,76,69,74,70,66,92,81,62,30.16,30.03,6,1,14,0.00
2013-6-25,87,77,71,75,72,69,95,83,64,30.10,29.96,5,1,11,0.00
2013-6-26,88,80,72,75,72,70,93,77,63,30.01,29.84,7,1,14,0.00
2013-6-27,89,78,67,78,72,65,95,81,66,29.92,29.80,8,1,19,0.11
2013-6-28,81,76,72,73,71,69,95,85,74,29.82,29.66,0,0,10,0.06
2013-6-29,85,77,68,70,65,62,93,70,48,29.70,29.63,2,0,7,0.01
2013-6-30,83,72,62,69,64,59,93,78,52,29.78,29.66,2,0,7,0.03
2013-7-1,80,69,62,70,64,61,95,85,66,29.87,29.74,1,0,6,0.01
2013-7-2,79,69,62,68,63,60,95,81,61,30.01,29.86,2,0,11,0.00
2013-7-3,80,71,65,71,66,62,93,83,66,30.08,30.01,3,0,10,0.03
2013-7-4,69,68,66,68,67,65,96,96,93,30.06,29.98,5,0,13,0.02
2013-7-5,74,70,67,72,68,66,96,95,88,30.10,30.01,7,1,13,2.81
2013-7-6,73,70,67,71,68,66,97,94,89,30.10,30.03,6,0,13,1.02
2013-7-7,84,75,69,74,70,68,96,85,67,30.11,30.03,4,0,13,0.60
2013-7-8,83,74,71,76,69,-100,96,88,73,30.15,30.05,4,0,11,0.01
2013-7-9,86,78,71,77,73,69,97,86,72,30.14,30.01,3,0,7,0.05
2013-7-10,89,78,71,78,70,-100,96,82,68,30.03,29.86,2,0,11,0.04
2013-7-11,86,75,69,77,71,68,96,89,72,29.96,29.84,1,0,5,0.15
2013-7-12,81,72,66,70,66,60,95,82,62,29.96,29.89,0,0,7,0.11
2013-7-13,83,74,62,71,66,58,88,76,61,30.02,29.93,3,0,9,0.07
2013-7-14,84,76,70,73,70,67,92,82,66,30.12,30.00,7,0,15,0.01
2013-7-15,84,76,71,73,70,69,92,82,67,30.22,30.11,4,0,14,0.00
2013-7-16,89,79,72,76,72,69,90,78,64,30.28,30.19,3,0,10,0.00
2013-7-17,91,80,72,78,74,70,94,81,62,30.27,30.12,0,0,2,0.00
2013-7-18,88,80,73,76,73,70,93,80,60,30.14,30.01,0,0,5,0.00
2013-7-19,88,78,71,75,72,69,94,81,59,30.07,29.92,5,0,11,0.00
2013-7-20,86,78,72,75,71,-100,94,79,67,29.98,29.85,7,0,16,0.00
2013-7-21,86,75,70,77,71,68,96,88,68,29.97,29.89,6,0,15,0.05
2013-7-22,74,70,68,72,69,67,96,94,89,29.94,29.87,5,0,13,0.11
2013-7-23,83,74,69,75,71,67,96,90,73,29.93,29.82,5,0,12,0.08
2013-7-24,84,75,69,74,71,67,97,87,69,29.90,29.82,2,0,7,0.00
2013-7-25,81,72,64,68,65,62,92,79,63,30.01,29.89,0,0,6,0.00
2013-7-26,83,73,63,70,66,61,93,78,59,30.03,29.94,0,0,6,0.00
2013-7-27,82,75,69,72,68,65,90,80,69,29.95,29.86,0,0,0,0.00
2013-7-28,79,71,65,67,64,60,93,80,64,30.06,29.90,0,0,0,0.00
2013-7-29,79,68,61,64,61,58,90,77,54,30.16,30.04,0,0,0,0.00
2013-7-30,85,72,62,75,66,59,94,82,62,30.17,30.04,0,0,0,0.04
2013-7-31,83,72,68,75,70,67,96,93,78,30.07,29.91,0,0,0,0.07
2013-8-1,82,74,68,73,69,66,97,86,69,30.00,29.93,0,0,1,0.21
2013-8-2,85,74,65,70,66,63,94,78,57,30.02,29.96,0,0,0,0.16
2013-8-3,75,72,68,73,70,65,95,91,81,30.06,29.96,0,0,0,0.14
2013-8-4,83,75,70,75,70,64,96,86,68,30.07,30.00,0,0,0,0.27
2013-8-5,81,72,66,70,65,60,89,79,62,30.05,29.95,0,0,0,0.16
2013-8-6,78,74,69,75,71,67,96,92,88,29.97,29.90,4,0,13,0.05
2013-8-7,85,75,71,78,72,69,97,93,79,29.97,29.89,6,1,13,0.09
2013-8-8,86,73,69,79,71,68,95,91,77,29.97,29.91,8,1,14,0.16
2013-8-9,85,75,71,79,73,70,96,92,82,30.03,29.95,5,1,12,0.04
2013-8-10,87,76,71,78,73,70,96,91,73,30.10,30.01,4,0,10,0.01
2013-8-11,86,76,70,78,73,69,97,91,74,30.12,30.03,7,1,12,0.01
2013-8-21,80,75,71,75,72,69,96,90,79,30.15,30.06,0,0,0,0.00
2013-8-22,87,76,69,76,71,67,96,86,71,30.14,30.01,1,0,6,0.00
2013-8-23,87,77,69,75,71,68,96,84,65,30.07,29.96,0,0,0,0.00
2013-8-24,88,76,69,74,67,-100,94,79,60,30.15,30.03,0,0,12,0.00
2013-8-25,84,76,68,70,67,64,88,76,62,30.29,30.17,2,0,13,0.00
2013-8-26,83,74,65,66,64,62,89,72,55,30.28,30.13,3,0,11,0.00
2013-8-27,85,72,63,71,65,61,94,81,58,30.14,30.06,0,0,3,0.00
2013-10-18,63,54,48,55,49,46,96,86,62,30.09,29.97,0,0,4,0.01
2013-10-19,63,52,44,55,46,-100,92,83,71,30.06,29.92,1,0,6,0.01
2013-10-20,66,51,39,44,39,36,94,68,38,30.11,30.03,0,0,4,0.01
2013-10-21,67,55,42,50,44,36,88,68,44,30.09,29.99,0,0,9,0.01
2013-10-22,61,54,48,53,50,45,92,86,76,30.02,29.88,1,0,9,0.00
2013-10-23,55,48,40,46,40,35,92,73,52,30.11,29.88,2,0,13,0.00
2013-10-24,58,47,40,45,40,34,90,77,60,30.33,30.11,3,0,11,0.00
2013-10-25,51,43,30,34,30,27,87,60,44,30.49,30.33,1,0,4,0.00
2013-10-26,58,46,31,42,32,-100,85,62,41,30.35,30.14,2,0,7,0.00
2013-10-27,67,58,51,56,50,42,83,75,65,30.14,30.06,2,0,7,0.00
2013-10-28,65,57,54,57,51,-100,95,86,75,30.24,30.09,1,0,4,0.02
2013-10-29,72,63,54,62,57,52,95,83,68,30.28,30.16,2,0,10,0.01
2013-10-30,77,67,59,61,57,55,89,73,48,30.23,30.06,1,0,9,0.00
2013-11-5,62,55,49,45,41,36,64,58,53,30.38,30.24,0,0,9,0.00
2013-11-6,72,62,52,60,54,41,95,76,58,30.24,30.04,6,0,23,0.54
2013-11-7,60,47,40,59,37,29,95,72,47,30.32,30.04,3,0,14,0.08
2013-11-8,57,46,34,36,31,28,78,57,38,30.40,30.25,2,0,10,0.01
2013-11-9,57,47,37,40,33,-100,75,60,51,30.33,30.23,0,0,10,0.00
2013-11-10,67,54,44,48,40,30,84,60,42,30.33,30.25,0,0,5,0.00
2013-11-11,67,55,41,35,30,27,59,40,25,30.30,30.16,1,0,6,0.00